createdAt,value
2019-01-28T00:00:11.947Z,98288.04
2019-01-28T00:02:40.716Z,98287.58
2019-01-28T00:05:09.324Z,98282.10
2019-01-28T00:07:37.754Z,98288.49
2019-01-28T00:10:08.003Z,98294.09
2019-01-28T00:12:38.786Z,98294.96
2019-01-28T00:15:08.443Z,98295.42
2019-01-28T00:17:37.005Z,98294.61
2019-01-28T00:20:07.112Z,98297.66
2019-01-28T00:22:35.537Z,98296.80
2019-01-28T00:25:04.618Z,98292.03
2019-01-28T00:27:33.098Z,98292.03
2019-01-28T00:30:01.571Z,98293.25
2019-01-28T00:32:30.016Z,98297.39
2019-01-28T00:34:58.432Z,98301.23
2019-01-28T00:37:26.890Z,98304.14
2019-01-28T00:39:55.305Z,98303.35
2019-01-28T00:42:26.108Z,98304.72
2019-01-28T00:44:54.527Z,98310.72
2019-01-28T00:47:22.966Z,98310.72
2019-01-28T00:49:51.374Z,98304.45
2019-01-28T00:52:19.845Z,98316.47
2019-01-28T00:54:48.294Z,98307.53
2019-01-28T00:57:16.724Z,98313.06
2019-01-28T00:59:45.204Z,98314.35
2019-01-28T01:02:13.634Z,98313.73
2019-01-28T01:04:42.117Z,98309.42
2019-01-28T01:07:10.552Z,98301.78
2019-01-28T01:09:38.968Z,98306.95
2019-01-28T01:12:07.510Z,98306.88
2019-01-28T01:14:35.934Z,98311.52
2019-01-28T01:17:04.523Z,98313.63
2019-01-28T01:19:32.940Z,98316.05
2019-01-28T01:22:01.398Z,98315.16
2019-01-28T01:24:29.843Z,98313.43
2019-01-28T01:26:58.336Z,98315.41
2019-01-28T01:29:26.758Z,98315.41
2019-01-28T01:31:55.200Z,98322.09
2019-01-28T01:34:23.614Z,98330.63
2019-01-28T01:36:52.047Z,98333.69
2019-01-28T01:39:20.458Z,98340.61
2019-01-28T01:41:48.973Z,98334.24
2019-01-28T01:44:17.400Z,98336.81
2019-01-28T01:46:45.853Z,98335.62
2019-01-28T01:49:14.281Z,98329.58
2019-01-28T01:51:42.716Z,98326.88
2019-01-28T01:54:11.137Z,98315.36
2019-01-28T01:56:39.616Z,98322.50
2019-01-28T01:59:08.064Z,98322.80
2019-01-28T02:01:36.473Z,98319.39
2019-01-28T02:04:05.195Z,98321.36
2019-01-28T02:06:33.623Z,98321.28
2019-01-28T02:09:02.144Z,98314.98
2019-01-28T02:11:30.556Z,98314.14
2019-01-28T02:13:58.988Z,98314.14
2019-01-28T02:16:27.398Z,98314.58
2019-01-28T02:18:55.825Z,98314.14
2019-01-28T02:21:24.287Z,98313.64
2019-01-28T02:23:52.710Z,98315.28
2019-01-28T02:26:21.149Z,98310.60
2019-01-28T02:28:49.591Z,98310.08
2019-01-28T02:31:18.069Z,98304.98
2019-01-28T02:33:46.511Z,98295.09
2019-01-28T02:36:14.991Z,98295.03
2019-01-28T02:38:43.416Z,98295.03
2019-01-28T02:41:11.846Z,98307.61
2019-01-28T02:43:40.292Z,98307.61
2019-01-28T02:46:08.786Z,98300.56
2019-01-28T02:48:37.247Z,98301.84
2019-01-28T02:51:05.715Z,98296.29
2019-01-28T02:53:34.137Z,98289.58
2019-01-28T02:56:02.592Z,98297.84
2019-01-28T02:58:31.026Z,98300.39
2019-01-28T03:00:59.446Z,98298.69
2019-01-28T03:03:27.949Z,98298.66
2019-01-28T03:05:56.369Z,98300.38
2019-01-28T03:08:24.850Z,98290.63
2019-01-28T03:10:53.331Z,98302.86
2019-01-28T03:13:21.758Z,98295.73
2019-01-28T03:15:50.166Z,98297.90
2019-01-28T03:18:18.663Z,98291.14
2019-01-28T03:20:47.088Z,98292.16
2019-01-28T03:23:16.426Z,98282.78
2019-01-28T03:25:44.847Z,98281.44
2019-01-28T03:28:13.284Z,98278.98
2019-01-28T03:30:41.755Z,98276.12
2019-01-28T03:33:10.123Z,98279.12
2019-01-28T03:35:38.540Z,98276.12
2019-01-28T03:38:06.951Z,98272.73
2019-01-28T03:40:35.403Z,98279.92
2019-01-28T03:43:03.899Z,98270.98
2019-01-28T03:45:32.402Z,98273.43
2019-01-28T03:48:00.850Z,98271.75
2019-01-28T03:50:29.287Z,98266.98
2019-01-28T03:52:57.866Z,98272.11
2019-01-28T03:55:26.304Z,98266.50
2019-01-28T03:57:54.845Z,98268.16
2019-01-28T04:00:25.502Z,98270.37
2019-01-28T04:02:53.964Z,98269.53
2019-01-28T04:05:24.214Z,98268.72
2019-01-28T04:07:52.625Z,98262.34
2019-01-28T04:10:23.734Z,98263.23
2019-01-28T04:12:52.400Z,98266.24
2019-01-28T04:15:22.973Z,98261.53
2019-01-28T04:17:52.033Z,98258.28
2019-01-28T04:20:22.181Z,98241.75
2019-01-28T04:22:50.596Z,98247.27
2019-01-28T04:25:19.113Z,98245.66
2019-01-28T04:27:47.516Z,98239.70
2019-01-28T04:30:20.960Z,98244.73
2019-01-28T04:32:49.434Z,98235.43
2019-01-28T04:35:18.039Z,98234.61
2019-01-28T04:37:46.629Z,98231.14
2019-01-28T04:40:16.600Z,98235.45
2019-01-28T04:42:45.266Z,98236.23
2019-01-28T04:45:19.058Z,98236.75
2019-01-28T04:47:48.567Z,98228.73
2019-01-28T04:50:19.483Z,98238.02
2019-01-28T04:52:48.164Z,98230.44
2019-01-28T04:55:17.131Z,98227.30
2019-01-28T04:57:45.819Z,98219.23
2019-01-28T05:00:19.993Z,98223.44
2019-01-28T05:02:48.556Z,98220.52
2019-01-28T05:05:17.312Z,98220.44
2019-01-28T05:07:45.839Z,98217.83
2019-01-28T05:10:16.698Z,98223.31
2019-01-28T05:12:45.350Z,98206.70
2019-01-28T05:15:16.119Z,98207.97
2019-01-28T05:17:44.538Z,98206.28
2019-01-28T05:20:18.194Z,98210.87
2019-01-28T05:22:46.660Z,98207.61
2019-01-28T05:25:16.834Z,98194.80
2019-01-28T05:27:45.491Z,98194.80
2019-01-28T05:30:19.114Z,98198.88
2019-01-28T05:32:47.741Z,98198.88
2019-01-28T05:35:18.055Z,98200.55
2019-01-28T05:37:46.594Z,98193.31
2019-01-28T05:40:22.512Z,98194.14
2019-01-28T05:42:51.042Z,98184.25
2019-01-28T05:45:21.378Z,98184.25
2019-01-28T05:47:49.935Z,98186.74
2019-01-28T05:50:18.597Z,98187.69
2019-01-28T05:52:47.242Z,98187.69
2019-01-28T05:55:19.354Z,98187.79
2019-01-28T05:57:48.573Z,98186.55
2019-01-28T06:00:26.940Z,98186.55
2019-01-28T06:02:55.360Z,98184.98
2019-01-28T06:05:23.961Z,98185.37
2019-01-28T06:07:52.388Z,98188.73
2019-01-28T06:10:20.896Z,98193.77
2019-01-28T06:12:49.364Z,98188.41
2019-01-28T06:15:19.350Z,98184.73
2019-01-28T06:17:47.837Z,98181.63
2019-01-28T06:20:24.440Z,98190.46
2019-01-28T06:22:53.317Z,98194.67
2019-01-28T06:25:22.690Z,98189.52
2019-01-28T06:27:51.310Z,98198.39
2019-01-28T06:30:22.586Z,98197.58
2019-01-28T06:32:51.311Z,98200.42
2019-01-28T06:35:20.334Z,98200.42
2019-01-28T06:37:48.820Z,98202.59
2019-01-28T06:40:20.044Z,98198.86
2019-01-28T06:42:48.605Z,98193.85
2019-01-28T06:45:17.438Z,98193.85
2019-01-28T06:47:46.854Z,98203.81
2019-01-28T06:50:18.397Z,98206.02
2019-01-28T06:52:46.991Z,98208.89
2019-01-28T06:55:15.671Z,98207.61
2019-01-28T06:57:44.234Z,98208.66
2019-01-28T07:00:18.675Z,98208.66
2019-01-28T07:02:47.117Z,98205.42
2019-01-28T07:05:15.602Z,98210.16
2019-01-28T07:07:44.031Z,98209.42
2019-01-28T07:10:12.890Z,98217.08
2019-01-28T07:12:41.389Z,98217.08
2019-01-28T07:15:12.839Z,98219.06
2019-01-28T07:17:41.276Z,98224.16
2019-01-28T07:20:18.909Z,98224.52
2019-01-28T07:22:47.436Z,98224.47
2019-01-28T07:25:15.927Z,98225.84
2019-01-28T07:27:44.600Z,98228.41
2019-01-28T07:30:19.069Z,98231.02
2019-01-28T07:32:47.509Z,98233.77
2019-01-28T07:35:16.110Z,98233.31
2019-01-28T07:37:44.634Z,98240.47
2019-01-28T07:40:15.487Z,98237.06
2019-01-28T07:42:43.946Z,98237.06
2019-01-28T07:45:18.656Z,98242.93
2019-01-28T07:47:47.323Z,98244.20
2019-01-28T07:50:15.873Z,98241.68
2019-01-28T07:52:44.401Z,98241.68
2019-01-28T07:55:13.551Z,98248.80
2019-01-28T07:57:42.362Z,98251.88
2019-01-28T08:00:22.405Z,98257.01
2019-01-28T08:02:50.894Z,98252.30
2019-01-28T08:05:20.241Z,98259.88
2019-01-28T08:07:48.678Z,98248.91
2019-01-28T08:10:19.037Z,98245.09
2019-01-28T08:12:48.199Z,98245.09
2019-01-28T08:15:22.227Z,98252.61
2019-01-28T08:17:50.676Z,98248.33
2019-01-28T08:20:20.151Z,98255.95
2019-01-28T08:22:48.912Z,98256.44
2019-01-28T08:25:19.457Z,98258.98
2019-01-28T08:27:48.162Z,98250.52
2019-01-28T08:30:32.207Z,98250.52
2019-01-28T08:33:02.723Z,98256.73
2019-01-28T08:35:32.512Z,98259.29
2019-01-28T08:38:00.934Z,98258.41
2019-01-28T08:40:29.480Z,98268.20
2019-01-28T08:42:57.980Z,98268.20
2019-01-28T08:45:26.480Z,98261.89
2019-01-28T08:47:54.897Z,98263.11
2019-01-28T08:50:27.971Z,98262.24
2019-01-28T08:52:56.466Z,98260.52
2019-01-28T08:55:27.121Z,98259.29
2019-01-28T08:57:55.892Z,98262.30
2019-01-28T09:00:33.064Z,98264.80
2019-01-28T09:03:01.538Z,98265.53
2019-01-28T09:05:30.391Z,98270.25
2019-01-28T09:07:59.158Z,98264.36
2019-01-28T09:10:29.417Z,98274.41
2019-01-28T09:12:57.920Z,98267.34
2019-01-28T09:15:26.824Z,98267.34
2019-01-28T09:17:55.578Z,98278.64
2019-01-28T09:20:29.692Z,98274.45
2019-01-28T09:22:58.108Z,98278.98
2019-01-28T09:25:26.731Z,98283.32
2019-01-28T09:27:55.166Z,98285.61
2019-01-28T09:30:26.307Z,98293.25
2019-01-28T09:32:54.785Z,98288.92
2019-01-28T09:35:23.377Z,98289.51
2019-01-28T09:37:52.157Z,98289.92
2019-01-28T09:40:22.922Z,98294.70
2019-01-28T09:42:51.785Z,98292.05
2019-01-28T09:45:22.749Z,98296.36
2019-01-28T09:47:51.438Z,98295.95
2019-01-28T09:50:20.413Z,98296.81
2019-01-28T09:52:50.393Z,98294.96
2019-01-28T09:55:19.183Z,98298.25
2019-01-28T09:57:47.889Z,98304.48
